Terminal Aerodrome Forecast
Issued by NWS

Home | Current Version | Previous Version | Text Only | Print | Product List | Glossary On
Versions: 1 2 3 4 5 6 7 8 9 10 11 12 13 14 15 16
000
FTUS43 KMQT 121237 AAA
TAFIWD
TAF AMD
KIWD 121237Z 1213/1312 33008G15KT 5SM -SHSN BLSN FEW010 OVC020
     FM121500 32012KT 6SM -SHSN OVC030
     FM122200 29005KT P6SM BKN040
     FM130200 20004KT P6SM OVC050
     FM130900 17008KT P6SM OVC020=

USA.gov is the U.S. government's official web portal to all federal, state and local government web resources and services.